sensor_id;sensor_type;location;lat;lon;timestamp;P1;durP1;ratioP1;P2;durP2;ratioP2
2652;SDS011;1336;48.692;9.144;2022-07-01T05:00:37;0.90;;;0.70;;
2652;SDS011;1336;48.692;9.144;2022-07-01T05:01:29;1.58;;;0.73;;
2652;SDS011;1336;48.692;9.144;2022-07-01T05:02:20;1.50;;;0.85;;
2652;SDS011;1336;48.692;9.144;2022-07-01T05:03:12;1.00;;;0.73;;
2652;SDS011;1336;48.692;9.144;2022-07-01T05:04:03;1.10;;;0.70;;
2652;SDS011;1336;48.692;9.144;2022-07-01T05:04:54;1.85;;;0.70;;
2652;SDS011;1336;48.692;9.144;2022-07-01T05:05:46;0.90;;;0.70;;
2652;SDS011;1336;48.692;9.144;2022-07-01T05:06:36;1.10;;;0.70;;
2652;SDS011;1336;48.692;9.144;2022-07-01T05:07:28;1.25;;;1.08;;
2652;SDS011;1336;48.692;9.144;2022-07-01T05:08:19;1.10;;;1.00;;
2652;SDS011;1336;48.692;9.144;2022-07-01T05:09:10;1.03;;;0.83;;
2652;SDS011;1336;48.692;9.144;2022-07-01T05:10:02;1.00;;;0.90;;
2652;SDS011;1336;48.692;9.144;2022-07-01T05:10:54;2.85;;;0.80;;
2652;SDS011;1336;48.692;9.144;2022-07-01T05:11:46;1.05;;;0.95;;
2652;SDS011;1336;48.692;9.144;2022-07-01T05:12:37;2.17;;;0.90;;
2652;SDS011;1336;48.692;9.144;2022-07-01T05:13:28;1.47;;;0.90;;
2652;SDS011;1336;48.692;9.144;2022-07-01T05:14:20;1.50;;;0.90;;
2652;SDS011;1336;48.692;9.144;2022-07-01T05:15:11;0.90;;;0.70;;
2652;SDS011;1336;48.692;9.144;2022-07-01T05:16:04;0.95;;;0.75;;
2652;SDS011;1336;48.692;9.144;2022-07-01T05:16:56;1.55;;;0.88;;
2652;SDS011;1336;48.692;9.144;2022-07-01T05:17:48;0.90;;;0.80;;
2652;SDS011;1336;48.692;9.144;2022-07-01T05:18:57;1.92;;;0.80;;
2652;SDS011;1336;48.692;9.144;2022-07-01T05:20:06;2.70;;;0.98;;
2652;SDS011;1336;48.692;9.144;2022-07-01T05:21:16;1.38;;;0.70;;
2652;SDS011;1336;48.692;9.144;2022-07-01T05:22:25;1.77;;;0.68;;
2652;SDS011;1336;48.692;9.144;2022-07-01T05:23:17;1.33;;;0.93;;
2652;SDS011;1336;48.692;9.144;2022-07-01T05:24:08;1.53;;;0.70;;
2652;SDS011;1336;48.692;9.144;2022-07-01T05:25:00;1.52;;;1.05;;
2652;SDS011;1336;48.692;9.144;2022-07-01T05:25:51;3.15;;;1.00;;
2652;SDS011;1336;48.692;9.144;2022-07-01T05:26:42;1.23;;;0.80;;
2652;SDS011;1336;48.692;9.144;2022-07-01T05:27:34;1.30;;;1.00;;
2652;SDS011;1336;48.692;9.144;2022-07-01T05:28:25;2.80;;;0.98;;
2652;SDS011;1336;48.692;9.144;2022-07-01T05:29:17;1.10;;;0.82;;
2652;SDS011;1336;48.692;9.144;2022-07-01T05:30:08;1.10;;;0.80;;
2652;SDS011;1336;48.692;9.144;2022-07-01T05:31:00;3.28;;;1.08;;
2652;SDS011;1336;48.692;9.144;2022-07-01T05:31:52;1.50;;;1.05;;
2652;SDS011;1336;48.692;9.144;2022-07-01T05:32:44;2.60;;;1.10;;
2652;SDS011;1336;48.692;9.144;2022-07-01T05:33:35;1.37;;;1.10;;
2652;SDS011;1336;48.692;9.144;2022-07-01T05:34:27;1.60;;;1.25;;
2652;SDS011;1336;48.692;9.144;2022-07-01T05:35:17;2.87;;;1.20;;
2652;SDS011;1336;48.692;9.144;2022-07-01T05:36:09;1.98;;;1.20;;
2652;SDS011;1336;48.692;9.144;2022-07-01T05:37:00;2.23;;;1.10;;
2652;SDS011;1336;48.692;9.144;2022-07-01T05:37:52;1.20;;;1.00;;
2652;SDS011;1336;48.692;9.144;2022-07-01T05:38:43;2.57;;;1.40;;
2652;SDS011;1336;48.692;9.144;2022-07-01T05:39:34;2.10;;;1.40;;
2652;SDS011;1336;48.692;9.144;2022-07-01T05:40:25;1.43;;;0.93;;
2652;SDS011;1336;48.692;9.144;2022-07-01T05:41:17;2.10;;;1.17;;
2652;SDS011;1336;48.692;9.144;2022-07-01T05:42:08;3.55;;;1.23;;
2652;SDS011;1336;48.692;9.144;2022-07-01T05:43:00;1.85;;;1.30;;
2652;SDS011;1336;48.692;9.144;2022-07-01T05:43:51;2.70;;;1.10;;
2652;SDS011;1336;48.692;9.144;2022-07-01T05:44:42;2.03;;;1.20;;
2652;SDS011;1336;48.692;9.144;2022-07-01T05:45:33;1.92;;;1.08;;
2652;SDS011;1336;48.692;9.144;2022-07-01T05:46:24;1.20;;;1.03;;
2652;SDS011;1336;48.692;9.144;2022-07-01T05:47:17;3.85;;;1.08;;
2652;SDS011;1336;48.692;9.144;2022-07-01T05:48:08;1.27;;;1.00;;
2652;SDS011;1336;48.692;9.144;2022-07-01T05:49:00;1.50;;;1.23;;
2652;SDS011;1336;48.692;9.144;2022-07-01T05:49:50;4.07;;;1.10;;
2652;SDS011;1336;48.692;9.144;2022-07-01T05:50:42;1.52;;;1.23;;
2652;SDS011;1336;48.692;9.144;2022-07-01T05:51:33;1.43;;;1.07;;
2652;SDS011;1336;48.692;9.144;2022-07-01T05:52:25;2.08;;;1.20;;
2652;SDS011;1336;48.692;9.144;2022-07-01T05:53:16;1.60;;;1.30;;
2652;SDS011;1336;48.692;9.144;2022-07-01T05:54:07;1.25;;;1.08;;
2652;SDS011;1336;48.692;9.144;2022-07-01T05:54:59;1.63;;;1.27;;
2652;SDS011;1336;48.692;9.144;2022-07-01T05:55:51;1.35;;;0.85;;
2652;SDS011;1336;48.692;9.144;2022-07-01T05:56:42;6.47;;;1.10;;
2652;SDS011;1336;48.692;9.144;2022-07-01T05:57:33;0.90;;;0.80;;
2652;SDS011;1336;48.692;9.144;2022-07-01T05:58:25;3.15;;;1.20;;
2652;SDS011;1336;48.692;9.144;2022-07-01T05:59:16;1.20;;;0.90;;
2652;SDS011;1336;48.692;9.144;2022-07-01T06:00:08;1.15;;;0.95;;
2652;SDS011;1336;48.692;9.144;2022-07-01T06:00:59;1.48;;;1.08;;
2652;SDS011;1336;48.692;9.144;2022-07-01T06:01:51;1.20;;;0.90;;
2652;SDS011;1336;48.692;9.144;2022-07-01T06:02:44;1.73;;;1.00;;
2652;SDS011;1336;48.692;9.144;2022-07-01T06:03:35;1.30;;;1.08;;
2652;SDS011;1336;48.692;9.144;2022-07-01T06:04:27;2.45;;;1.45;;
2652;SDS011;1336;48.692;9.144;2022-07-01T06:05:18;1.50;;;0.90;;
2652;SDS011;1336;48.692;9.144;2022-07-01T06:06:09;1.08;;;0.85;;
2652;SDS011;1336;48.692;9.144;2022-07-01T06:07:00;2.03;;;0.83;;
2652;SDS011;1336;48.692;9.144;2022-07-01T06:07:52;2.47;;;1.33;;
2652;SDS011;1336;48.692;9.144;2022-07-01T06:08:43;1.23;;;0.90;;
2652;SDS011;1336;48.692;9.144;2022-07-01T06:09:34;1.70;;;0.90;;
2652;SDS011;1336;48.692;9.144;2022-07-01T06:10:25;1.83;;;1.07;;
2652;SDS011;1336;48.692;9.144;2022-07-01T06:11:17;2.58;;;1.27;;
2652;SDS011;1336;48.692;9.144;2022-07-01T06:12:08;1.67;;;0.90;;
2652;SDS011;1336;48.692;9.144;2022-07-01T06:13:00;2.00;;;0.93;;
2652;SDS011;1336;48.692;9.144;2022-07-01T06:13:51;3.33;;;1.00;;
2652;SDS011;1336;48.692;9.144;2022-07-01T06:14:43;2.65;;;1.10;;
2652;SDS011;1336;48.692;9.144;2022-07-01T06:15:34;1.70;;;1.10;;
2652;SDS011;1336;48.692;9.144;2022-07-01T06:16:25;5.22;;;1.30;;
2652;SDS011;1336;48.692;9.144;2022-07-01T06:17:16;2.03;;;1.00;;
2652;SDS011;1336;48.692;9.144;2022-07-01T06:18:09;1.88;;;1.00;;
2652;SDS011;1336;48.692;9.144;2022-07-01T06:19:00;1.30;;;0.98;;
2652;SDS011;1336;48.692;9.144;2022-07-01T06:19:52;9.13;;;1.05;;
2652;SDS011;1336;48.692;9.144;2022-07-01T06:20:43;1.20;;;0.83;;
2652;SDS011;1336;48.692;9.144;2022-07-01T06:21:35;2.15;;;1.00;;
2652;SDS011;1336;48.692;9.144;2022-07-01T06:22:26;1.60;;;0.97;;
2652;SDS011;1336;48.692;9.144;2022-07-01T06:23:18;2.67;;;1.00;;
2652;SDS011;1336;48.692;9.144;2022-07-01T06:24:08;2.30;;;1.13;;
2652;SDS011;1336;48.692;9.144;2022-07-01T06:25:00;1.85;;;1.02;;
2652;SDS011;1336;48.692;9.144;2022-07-01T06:25:52;2.13;;;1.30;;
2652;SDS011;1336;48.692;9.144;2022-07-01T06:26:44;1.17;;;0.93;;
2652;SDS011;1336;48.692;9.144;2022-07-01T06:27:37;1.30;;;1.00;;
2652;SDS011;1336;48.692;9.144;2022-07-01T06:28:30;1.35;;;0.77;;
2652;SDS011;1336;48.692;9.144;2022-07-01T06:29:21;2.50;;;0.98;;
2652;SDS011;1336;48.692;9.144;2022-07-01T06:30:12;1.23;;;0.90;;
2652;SDS011;1336;48.692;9.144;2022-07-01T06:31:04;3.65;;;1.05;;
2652;SDS011;1336;48.692;9.144;2022-07-01T06:31:57;1.52;;;0.90;;
2652;SDS011;1336;48.692;9.144;2022-07-01T06:32:48;2.93;;;1.70;;
2652;SDS011;1336;48.692;9.144;2022-07-01T06:33:41;1.42;;;0.80;;
2652;SDS011;1336;48.692;9.144;2022-07-01T06:34:31;2.58;;;0.90;;
2652;SDS011;1336;48.692;9.144;2022-07-01T06:35:23;1.58;;;1.00;;
2652;SDS011;1336;48.692;9.144;2022-07-01T06:36:14;1.33;;;0.83;;
2652;SDS011;1336;48.692;9.144;2022-07-01T06:37:06;2.30;;;0.90;;
2652;SDS011;1336;48.692;9.144;2022-07-01T06:37:57;5.22;;;0.90;;
2652;SDS011;1336;48.692;9.144;2022-07-01T06:38:49;1.30;;;1.20;;
2652;SDS011;1336;48.692;9.144;2022-07-01T06:39:40;1.63;;;0.90;;
2652;SDS011;1336;48.692;9.144;2022-07-01T06:40:31;3.95;;;1.05;;
2652;SDS011;1336;48.692;9.144;2022-07-01T06:41:22;1.10;;;0.90;;
2652;SDS011;1336;48.692;9.144;2022-07-01T06:42:17;1.10;;;0.88;;
2652;SDS011;1336;48.692;9.144;2022-07-01T06:43:08;0.90;;;0.80;;
2652;SDS011;1336;48.692;9.144;2022-07-01T06:44:00;1.20;;;1.10;;
2652;SDS011;1336;48.692;9.144;2022-07-01T06:44:52;1.85;;;1.00;;
2652;SDS011;1336;48.692;9.144;2022-07-01T06:45:44;2.42;;;1.10;;
2652;SDS011;1336;48.692;9.144;2022-07-01T06:46:34;1.50;;;1.03;;
2652;SDS011;1336;48.692;9.144;2022-07-01T06:47:26;1.65;;;1.00;;
2652;SDS011;1336;48.692;9.144;2022-07-01T06:48:17;2.30;;;1.00;;
2652;SDS011;1336;48.692;9.144;2022-07-01T06:49:10;1.45;;;1.10;;
2652;SDS011;1336;48.692;9.144;2022-07-01T06:50:01;2.03;;;1.00;;
2652;SDS011;1336;48.692;9.144;2022-07-01T06:50:53;1.10;;;0.90;;
2652;SDS011;1336;48.692;9.144;2022-07-01T06:51:44;1.47;;;0.90;;
2652;SDS011;1336;48.692;9.144;2022-07-01T06:52:36;3.15;;;1.08;;
2652;SDS011;1336;48.692;9.144;2022-07-01T06:53:26;1.33;;;1.23;;
2652;SDS011;1336;48.692;9.144;2022-07-01T06:54:18;1.30;;;1.00;;
2652;SDS011;1336;48.692;9.144;2022-07-01T06:55:09;1.33;;;0.90;;
2652;SDS011;1336;48.692;9.144;2022-07-01T06:56:01;1.30;;;1.20;;
2652;SDS011;1336;48.692;9.144;2022-07-01T06:56:52;1.48;;;1.00;;
2652;SDS011;1336;48.692;9.144;2022-07-01T06:57:44;1.63;;;1.17;;
2652;SDS011;1336;48.692;9.144;2022-07-01T06:58:35;2.33;;;1.23;;
2652;SDS011;1336;48.692;9.144;2022-07-01T06:59:27;1.80;;;1.38;;
2652;SDS011;1336;48.692;9.144;2022-07-01T07:00:18;2.50;;;1.57;;
2652;SDS011;1336;48.692;9.144;2022-07-01T07:01:10;3.92;;;1.25;;
2652;SDS011;1336;48.692;9.144;2022-07-01T07:02:01;1.65;;;1.20;;
2652;SDS011;1336;48.692;9.144;2022-07-01T07:02:54;6.40;;;1.35;;
2652;SDS011;1336;48.692;9.144;2022-07-01T07:03:45;1.65;;;1.10;;
2652;SDS011;1336;48.692;9.144;2022-07-01T07:04:37;1.20;;;1.10;;
2652;SDS011;1336;48.692;9.144;2022-07-01T07:05:29;1.35;;;1.17;;
2652;SDS011;1336;48.692;9.144;2022-07-01T07:06:21;1.20;;;1.10;;
2652;SDS011;1336;48.692;9.144;2022-07-01T07:07:12;1.40;;;1.08;;
2652;SDS011;1336;48.692;9.144;2022-07-01T07:08:03;1.20;;;1.10;;
2652;SDS011;1336;48.692;9.144;2022-07-01T07:08:55;1.20;;;1.00;;
2652;SDS011;1336;48.692;9.144;2022-07-01T07:09:46;1.63;;;1.00;;
2652;SDS011;1336;48.692;9.144;2022-07-01T07:10:37;2.25;;;1.40;;
2652;SDS011;1336;48.692;9.144;2022-07-01T07:11:28;2.43;;;1.20;;
2652;SDS011;1336;48.692;9.144;2022-07-01T07:12:20;1.58;;;1.42;;
2652;SDS011;1336;48.692;9.144;2022-07-01T07:13:11;3.43;;;1.70;;
2652;SDS011;1336;48.692;9.144;2022-07-01T07:14:03;1.90;;;1.70;;
2652;SDS011;1336;48.692;9.144;2022-07-01T07:14:54;2.15;;;1.77;;
2652;SDS011;1336;48.692;9.144;2022-07-01T07:15:45;3.57;;;2.10;;
2652;SDS011;1336;48.692;9.144;2022-07-01T07:16:37;1.70;;;1.60;;
2652;SDS011;1336;48.692;9.144;2022-07-01T07:17:28;1.80;;;1.30;;
2652;SDS011;1336;48.692;9.144;2022-07-01T07:18:20;2.22;;;2.03;;
2652;SDS011;1336;48.692;9.144;2022-07-01T07:19:11;2.72;;;1.55;;
2652;SDS011;1336;48.692;9.144;2022-07-01T07:20:04;1.38;;;1.00;;
2652;SDS011;1336;48.692;9.144;2022-07-01T07:20:57;1.75;;;1.23;;
2652;SDS011;1336;48.692;9.144;2022-07-01T07:21:48;1.30;;;1.10;;
2652;SDS011;1336;48.692;9.144;2022-07-01T07:22:40;1.75;;;1.23;;
2652;SDS011;1336;48.692;9.144;2022-07-01T07:23:31;2.43;;;1.10;;
2652;SDS011;1336;48.692;9.144;2022-07-01T07:24:22;1.55;;;1.00;;
2652;SDS011;1336;48.692;9.144;2022-07-01T07:25:13;1.63;;;0.97;;
2652;SDS011;1336;48.692;9.144;2022-07-01T07:26:05;3.03;;;0.95;;
2652;SDS011;1336;48.692;9.144;2022-07-01T07:26:56;1.07;;;0.73;;
2652;SDS011;1336;48.692;9.144;2022-07-01T07:27:48;1.30;;;0.75;;
2652;SDS011;1336;48.692;9.144;2022-07-01T07:28:38;1.20;;;1.00;;
2652;SDS011;1336;48.692;9.144;2022-07-01T07:29:30;1.10;;;1.00;;
2652;SDS011;1336;48.692;9.144;2022-07-01T07:30:21;1.67;;;0.87;;
2652;SDS011;1336;48.692;9.144;2022-07-01T07:31:13;0.93;;;0.82;;
2652;SDS011;1336;48.692;9.144;2022-07-01T07:32:04;1.00;;;0.87;;
2652;SDS011;1336;48.692;9.144;2022-07-01T07:32:57;1.10;;;0.75;;
2652;SDS011;1336;48.692;9.144;2022-07-01T07:33:47;2.37;;;1.10;;
2652;SDS011;1336;48.692;9.144;2022-07-01T07:34:39;1.10;;;0.80;;
2652;SDS011;1336;48.692;9.144;2022-07-01T07:35:31;1.10;;;0.83;;
2652;SDS011;1336;48.692;9.144;2022-07-01T07:36:23;1.30;;;0.88;;
2652;SDS011;1336;48.692;9.144;2022-07-01T07:37:14;0.87;;;0.70;;
2652;SDS011;1336;48.692;9.144;2022-07-01T07:38:05;1.45;;;0.95;;
2652;SDS011;1336;48.692;9.144;2022-07-01T07:38:57;1.58;;;0.73;;
2652;SDS011;1336;48.692;9.144;2022-07-01T07:39:49;1.40;;;0.88;;
2652;SDS011;1336;48.692;9.144;2022-07-01T07:40:40;1.53;;;0.90;;
2652;SDS011;1336;48.692;9.144;2022-07-01T07:41:32;1.48;;;0.88;;
2652;SDS011;1336;48.692;9.144;2022-07-01T07:42:23;1.20;;;1.00;;
2652;SDS011;1336;48.692;9.144;2022-07-01T07:43:15;1.05;;;0.80;;
2652;SDS011;1336;48.692;9.144;2022-07-01T07:44:06;0.90;;;0.70;;
2652;SDS011;1336;48.692;9.144;2022-07-01T07:44:58;1.00;;;0.70;;
2652;SDS011;1336;48.692;9.144;2022-07-01T07:45:49;1.88;;;1.08;;
2652;SDS011;1336;48.692;9.144;2022-07-01T07:46:40;1.00;;;0.90;;
2652;SDS011;1336;48.692;9.144;2022-07-01T07:47:31;1.50;;;0.83;;
2652;SDS011;1336;48.692;9.144;2022-07-01T07:48:23;1.10;;;1.00;;
2652;SDS011;1336;48.692;9.144;2022-07-01T07:49:14;1.83;;;0.73;;
2652;SDS011;1336;48.692;9.144;2022-07-01T07:50:06;1.90;;;0.90;;
2652;SDS011;1336;48.692;9.144;2022-07-01T07:50:58;0.98;;;0.80;;
2652;SDS011;1336;48.692;9.144;2022-07-01T07:51:50;0.95;;;0.85;;
2652;SDS011;1336;48.692;9.144;2022-07-01T07:52:41;1.30;;;0.80;;
2652;SDS011;1336;48.692;9.144;2022-07-01T07:53:33;1.40;;;1.02;;
2652;SDS011;1336;48.692;9.144;2022-07-01T07:54:24;1.00;;;0.80;;
2652;SDS011;1336;48.692;9.144;2022-07-01T07:55:15;2.75;;;1.10;;
2652;SDS011;1336;48.692;9.144;2022-07-01T07:56:06;0.87;;;0.80;;
2652;SDS011;1336;48.692;9.144;2022-07-01T07:56:58;1.00;;;0.80;;
2652;SDS011;1336;48.692;9.144;2022-07-01T07:57:49;1.00;;;0.90;;
2652;SDS011;1336;48.692;9.144;2022-07-01T07:58:40;1.52;;;0.80;;
2652;SDS011;1336;48.692;9.144;2022-07-01T07:59:33;1.90;;;0.90;;
2652;SDS011;1336;48.692;9.144;2022-07-01T08:00:25;1.40;;;0.80;;
2652;SDS011;1336;48.692;9.144;2022-07-01T08:01:18;1.48;;;0.70;;
2652;SDS011;1336;48.692;9.144;2022-07-01T08:02:10;1.42;;;0.82;;
2652;SDS011;1336;48.692;9.144;2022-07-01T08:03:01;4.15;;;1.40;;
2652;SDS011;1336;48.692;9.144;2022-07-01T08:03:52;1.33;;;0.80;;
2652;SDS011;1336;48.692;9.144;2022-07-01T08:04:43;1.10;;;0.80;;
2652;SDS011;1336;48.692;9.144;2022-07-01T08:05:35;1.42;;;0.70;;
2652;SDS011;1336;48.692;9.144;2022-07-01T08:06:27;1.13;;;0.73;;
2652;SDS011;1336;48.692;9.144;2022-07-01T08:07:19;1.33;;;0.70;;
2652;SDS011;1336;48.692;9.144;2022-07-01T08:08:10;2.38;;;1.10;;
2652;SDS011;1336;48.692;9.144;2022-07-01T08:09:02;0.80;;;0.65;;
2652;SDS011;1336;48.692;9.144;2022-07-01T08:09:53;1.15;;;0.90;;
2652;SDS011;1336;48.692;9.144;2022-07-01T08:10:45;1.02;;;0.85;;
2652;SDS011;1336;48.692;9.144;2022-07-01T08:11:36;0.80;;;0.70;;
2652;SDS011;1336;48.692;9.144;2022-07-01T08:12:28;1.17;;;1.00;;
2652;SDS011;1336;48.692;9.144;2022-07-01T08:13:19;1.40;;;0.80;;
2652;SDS011;1336;48.692;9.144;2022-07-01T08:14:11;1.15;;;0.90;;
2652;SDS011;1336;48.692;9.144;2022-07-01T08:15:01;1.33;;;0.90;;
2652;SDS011;1336;48.692;9.144;2022-07-01T08:15:54;0.80;;;0.60;;
2652;SDS011;1336;48.692;9.144;2022-07-01T08:16:45;1.40;;;0.88;;
2652;SDS011;1336;48.692;9.144;2022-07-01T08:17:37;0.90;;;0.68;;
2652;SDS011;1336;48.692;9.144;2022-07-01T08:18:28;0.80;;;0.70;;
2652;SDS011;1336;48.692;9.144;2022-07-01T08:19:20;1.00;;;0.70;;
2652;SDS011;1336;48.692;9.144;2022-07-01T08:20:11;0.80;;;0.70;;
2652;SDS011;1336;48.692;9.144;2022-07-01T08:21:02;2.00;;;0.80;;
2652;SDS011;1336;48.692;9.144;2022-07-01T08:21:56;1.48;;;0.80;;
2652;SDS011;1336;48.692;9.144;2022-07-01T08:22:46;1.15;;;0.82;;
2652;SDS011;1336;48.692;9.144;2022-07-01T08:23:38;2.47;;;0.90;;
2652;SDS011;1336;48.692;9.144;2022-07-01T08:24:30;2.25;;;0.80;;
2652;SDS011;1336;48.692;9.144;2022-07-01T08:25:21;1.13;;;0.90;;
2652;SDS011;1336;48.692;9.144;2022-07-01T08:26:13;2.45;;;0.82;;
2652;SDS011;1336;48.692;9.144;2022-07-01T08:27:05;0.80;;;0.63;;
2652;SDS011;1336;48.692;9.144;2022-07-01T08:27:56;2.60;;;0.82;;
2652;SDS011;1336;48.692;9.144;2022-07-01T08:28:47;1.30;;;0.70;;
2652;SDS011;1336;48.692;9.144;2022-07-01T08:29:39;1.23;;;0.80;;
2652;SDS011;1336;48.692;9.144;2022-07-01T08:30:30;2.00;;;1.10;;
2652;SDS011;1336;48.692;9.144;2022-07-01T08:31:22;2.03;;;0.90;;
2652;SDS011;1336;48.692;9.144;2022-07-01T08:32:13;1.60;;;0.80;;
2652;SDS011;1336;48.692;9.144;2022-07-01T08:33:04;1.60;;;1.07;;
2652;SDS011;1336;48.692;9.144;2022-07-01T08:33:56;2.35;;;0.93;;
2652;SDS011;1336;48.692;9.144;2022-07-01T08:34:47;2.07;;;1.20;;
2652;SDS011;1336;48.692;9.144;2022-07-01T08:35:39;3.58;;;1.15;;
2652;SDS011;1336;48.692;9.144;2022-07-01T08:36:30;1.55;;;0.90;;
2652;SDS011;1336;48.692;9.144;2022-07-01T08:37:23;1.10;;;0.82;;
2652;SDS011;1336;48.692;9.144;2022-07-01T08:38:14;1.42;;;1.05;;
2652;SDS011;1336;48.692;9.144;2022-07-01T08:39:06;1.65;;;0.80;;
2652;SDS011;1336;48.692;9.144;2022-07-01T08:39:56;1.23;;;0.80;;
2652;SDS011;1336;48.692;9.144;2022-07-01T08:40:49;1.30;;;0.80;;
2652;SDS011;1336;48.692;9.144;2022-07-01T08:41:40;1.10;;;0.73;;
2652;SDS011;1336;48.692;9.144;2022-07-01T08:42:32;0.90;;;0.70;;
2652;SDS011;1336;48.692;9.144;2022-07-01T08:43:22;1.20;;;0.90;;
2652;SDS011;1336;48.692;9.144;2022-07-01T08:44:14;1.10;;;0.88;;
2652;SDS011;1336;48.692;9.144;2022-07-01T08:45:06;1.00;;;0.80;;
2652;SDS011;1336;48.692;9.144;2022-07-01T08:45:59;1.23;;;0.95;;
2652;SDS011;1336;48.692;9.144;2022-07-01T08:46:51;1.33;;;0.73;;
2652;SDS011;1336;48.692;9.144;2022-07-01T08:47:49;1.05;;;0.80;;
2652;SDS011;1336;48.692;9.144;2022-07-01T08:48:41;0.80;;;0.80;;
2652;SDS011;1336;48.692;9.144;2022-07-01T08:49:33;1.65;;;0.70;;
2652;SDS011;1336;48.692;9.144;2022-07-01T08:50:24;1.20;;;0.83;;
2652;SDS011;1336;48.692;9.144;2022-07-01T08:51:16;0.90;;;0.77;;
2652;SDS011;1336;48.692;9.144;2022-07-01T08:52:07;1.90;;;0.83;;
2652;SDS011;1336;48.692;9.144;2022-07-01T08:53:01;1.00;;;0.70;;
2652;SDS011;1336;48.692;9.144;2022-07-01T08:53:52;1.40;;;0.82;;
2652;SDS011;1336;48.692;9.144;2022-07-01T08:54:44;1.00;;;0.80;;
2652;SDS011;1336;48.692;9.144;2022-07-01T08:55:35;1.33;;;0.80;;
2652;SDS011;1336;48.692;9.144;2022-07-01T08:56:48;1.45;;;0.80;;
2652;SDS011;1336;48.692;9.144;2022-07-01T08:57:38;2.13;;;1.20;;
2652;SDS011;1336;48.692;9.144;2022-07-01T08:58:30;1.10;;;0.90;;
2652;SDS011;1336;48.692;9.144;2022-07-01T08:59:22;1.75;;;0.90;;
2652;SDS011;1336;48.692;9.144;2022-07-01T09:00:15;1.00;;;0.90;;
2652;SDS011;1336;48.692;9.144;2022-07-01T09:01:13;1.83;;;1.30;;
2652;SDS011;1336;48.692;9.144;2022-07-01T09:02:06;1.20;;;0.80;;
2652;SDS011;1336;48.692;9.144;2022-07-01T09:02:57;1.23;;;0.83;;
2652;SDS011;1336;48.692;9.144;2022-07-01T09:03:50;1.63;;;1.02;;
2652;SDS011;1336;48.692;9.144;2022-07-01T09:04:42;2.33;;;0.90;;
2652;SDS011;1336;48.692;9.144;2022-07-01T09:05:34;2.67;;;0.95;;
2652;SDS011;1336;48.692;9.144;2022-07-01T09:06:27;2.60;;;1.20;;
2652;SDS011;1336;48.692;9.144;2022-07-01T09:07:19;1.30;;;1.10;;
2652;SDS011;1336;48.692;9.144;2022-07-01T09:08:24;1.20;;;1.00;;
2652;SDS011;1336;48.692;9.144;2022-07-01T09:09:18;1.25;;;0.85;;
2652;SDS011;1336;48.692;9.144;2022-07-01T09:10:13;1.92;;;1.20;;
2652;SDS011;1336;48.692;9.144;2022-07-01T09:11:11;1.48;;;1.00;;
2652;SDS011;1336;48.692;9.144;2022-07-01T09:12:02;1.52;;;0.90;;
2652;SDS011;1336;48.692;9.144;2022-07-01T09:12:55;1.88;;;1.00;;
2652;SDS011;1336;48.692;9.144;2022-07-01T09:14:03;2.27;;;1.07;;
2652;SDS011;1336;48.692;9.144;2022-07-01T09:14:57;1.38;;;0.90;;
2652;SDS011;1336;48.692;9.144;2022-07-01T09:16:10;2.28;;;1.10;;
2652;SDS011;1336;48.692;9.144;2022-07-01T09:17:03;1.38;;;0.95;;
2652;SDS011;1336;48.692;9.144;2022-07-01T09:17:56;1.20;;;0.82;;
2652;SDS011;1336;48.692;9.144;2022-07-01T09:18:58;1.75;;;1.00;;
2652;SDS011;1336;48.692;9.144;2022-07-01T09:19:51;3.10;;;1.35;;
2652;SDS011;1336;48.692;9.144;2022-07-01T09:20:43;1.35;;;1.25;;
2652;SDS011;1336;48.692;9.144;2022-07-01T09:21:35;1.73;;;1.10;;
2652;SDS011;1336;48.692;9.144;2022-07-01T09:22:26;1.10;;;0.80;;
2652;SDS011;1336;48.692;9.144;2022-07-01T09:23:18;1.50;;;1.00;;
2652;SDS011;1336;48.692;9.144;2022-07-01T09:24:24;2.70;;;1.10;;
2652;SDS011;1336;48.692;9.144;2022-07-01T09:25:17;1.10;;;0.80;;
2652;SDS011;1336;48.692;9.144;2022-07-01T09:26:09;1.25;;;0.80;;
2652;SDS011;1336;48.692;9.144;2022-07-01T09:27:10;1.63;;;0.90;;
2652;SDS011;1336;48.692;9.144;2022-07-01T09:28:07;1.92;;;0.80;;
2652;SDS011;1336;48.692;9.144;2022-07-01T09:29:00;1.02;;;0.90;;
2652;SDS011;1336;48.692;9.144;2022-07-01T09:29:53;1.20;;;1.10;;
2652;SDS011;1336;48.692;9.144;2022-07-01T09:30:44;1.57;;;0.80;;
2652;SDS011;1336;48.692;9.144;2022-07-01T09:31:37;2.80;;;1.98;;
2652;SDS011;1336;48.692;9.144;2022-07-01T09:32:38;5.80;;;3.30;;
2652;SDS011;1336;48.692;9.144;2022-07-01T09:33:29;2.17;;;1.50;;
2652;SDS011;1336;48.692;9.144;2022-07-01T09:34:20;4.60;;;3.17;;
2652;SDS011;1336;48.692;9.144;2022-07-01T09:35:12;4.82;;;3.22;;
2652;SDS011;1336;48.692;9.144;2022-07-01T09:36:14;10.13;;;6.20;;
2652;SDS011;1336;48.692;9.144;2022-07-01T09:37:06;4.13;;;2.25;;
2652;SDS011;1336;48.692;9.144;2022-07-01T09:37:57;2.43;;;1.50;;
2652;SDS011;1336;48.692;9.144;2022-07-01T09:38:49;1.50;;;1.38;;
2652;SDS011;1336;48.692;9.144;2022-07-01T09:39:44;2.40;;;1.67;;
2652;SDS011;1336;48.692;9.144;2022-07-01T09:40:46;2.85;;;1.77;;
2652;SDS011;1336;48.692;9.144;2022-07-01T09:41:39;2.45;;;1.42;;
2652;SDS011;1336;48.692;9.144;2022-07-01T09:42:31;4.20;;;2.08;;
2652;SDS011;1336;48.692;9.144;2022-07-01T09:43:23;2.20;;;1.80;;
2652;SDS011;1336;48.692;9.144;2022-07-01T09:44:15;3.28;;;2.00;;
2652;SDS011;1336;48.692;9.144;2022-07-01T09:45:07;3.15;;;2.40;;
2652;SDS011;1336;48.692;9.144;2022-07-01T09:46:01;3.65;;;2.58;;
2652;SDS011;1336;48.692;9.144;2022-07-01T09:46:54;2.15;;;1.70;;
2652;SDS011;1336;48.692;9.144;2022-07-01T09:47:47;5.90;;;3.22;;
2652;SDS011;1336;48.692;9.144;2022-07-01T09:48:43;3.38;;;2.55;;
2652;SDS011;1336;48.692;9.144;2022-07-01T09:49:36;1.65;;;1.30;;
2652;SDS011;1336;48.692;9.144;2022-07-01T09:50:27;5.43;;;1.20;;
2652;SDS011;1336;48.692;9.144;2022-07-01T09:51:19;3.88;;;2.40;;
2652;SDS011;1336;48.692;9.144;2022-07-01T09:52:09;3.80;;;2.73;;
2652;SDS011;1336;48.692;9.144;2022-07-01T09:53:01;4.32;;;2.85;;
2652;SDS011;1336;48.692;9.144;2022-07-01T09:53:52;2.80;;;2.10;;
2652;SDS011;1336;48.692;9.144;2022-07-01T09:54:46;6.43;;;2.47;;
2652;SDS011;1336;48.692;9.144;2022-07-01T09:55:37;2.83;;;2.08;;
2652;SDS011;1336;48.692;9.144;2022-07-01T09:56:30;1.77;;;1.55;;
2652;SDS011;1336;48.692;9.144;2022-07-01T09:57:22;2.13;;;1.00;;
2652;SDS011;1336;48.692;9.144;2022-07-01T09:58:13;4.40;;;3.22;;
2652;SDS011;1336;48.692;9.144;2022-07-01T09:59:05;3.00;;;2.20;;
2652;SDS011;1336;48.692;9.144;2022-07-01T09:59:56;4.23;;;1.77;;
2652;SDS011;1336;48.692;9.144;2022-07-01T10:00:48;1.75;;;1.25;;
2652;SDS011;1336;48.692;9.144;2022-07-01T10:01:41;1.63;;;1.33;;
2652;SDS011;1336;48.692;9.144;2022-07-01T10:02:35;1.23;;;0.80;;
2652;SDS011;1336;48.692;9.144;2022-07-01T10:03:27;2.05;;;1.23;;
2652;SDS011;1336;48.692;9.144;2022-07-01T10:04:22;1.10;;;0.80;;
2652;SDS011;1336;48.692;9.144;2022-07-01T10:05:15;2.20;;;1.45;;
2652;SDS011;1336;48.692;9.144;2022-07-01T10:06:23;1.05;;;0.95;;
2652;SDS011;1336;48.692;9.144;2022-07-01T10:07:27;1.70;;;1.20;;
2652;SDS011;1336;48.692;9.144;2022-07-01T10:08:39;1.83;;;1.00;;
2652;SDS011;1336;48.692;9.144;2022-07-01T10:09:46;2.60;;;1.35;;
2652;SDS011;1336;48.692;9.144;2022-07-01T10:10:57;2.10;;;1.00;;
2652;SDS011;1336;48.692;9.144;2022-07-01T10:12:16;1.95;;;1.10;;
2652;SDS011;1336;48.692;9.144;2022-07-01T10:13:21;2.15;;;1.00;;
2652;SDS011;1336;48.692;9.144;2022-07-01T10:14:17;1.45;;;1.35;;
2652;SDS011;1336;48.692;9.144;2022-07-01T10:15:10;1.80;;;1.60;;
2652;SDS011;1336;48.692;9.144;2022-07-01T10:16:05;1.45;;;1.10;;
2652;SDS011;1336;48.692;9.144;2022-07-01T10:16:57;1.35;;;1.00;;
2652;SDS011;1336;48.692;9.144;2022-07-01T10:17:49;1.75;;;1.10;;
2652;SDS011;1336;48.692;9.144;2022-07-01T10:18:41;1.00;;;0.73;;
2652;SDS011;1336;48.692;9.144;2022-07-01T10:19:33;1.30;;;1.05;;
2652;SDS011;1336;48.692;9.144;2022-07-01T10:20:25;1.50;;;1.00;;
2652;SDS011;1336;48.692;9.144;2022-07-01T10:21:25;2.28;;;1.00;;
2652;SDS011;1336;48.692;9.144;2022-07-01T10:22:28;1.45;;;1.15;;
2652;SDS011;1336;48.692;9.144;2022-07-01T10:23:21;1.75;;;0.90;;
2652;SDS011;1336;48.692;9.144;2022-07-01T10:24:14;1.75;;;1.15;;
2652;SDS011;1336;48.692;9.144;2022-07-01T10:26:33;1.30;;;1.02;;
2652;SDS011;1336;48.692;9.144;2022-07-01T10:27:26;2.55;;;1.50;;
2652;SDS011;1336;48.692;9.144;2022-07-01T10:28:24;2.67;;;1.08;;
2652;SDS011;1336;48.692;9.144;2022-07-01T10:29:26;2.30;;;1.20;;